Time;durP1;ratioP1;P1;durP2;ratioP2;P2;SDS_P1;SDS_P2;PMS_P1;PMS_P2;Temp;Humidity;BMP_temperature;BMP_pressure;BME280_temperature;BME280_humidity;BME280_pressure;Samples;Min_cycle;Max_cycle;Signal;HPM_P1;HPM_P2
2022/09/19 00:01:11;;;;;;;27.83;3.67;;;;;;;10.54;100.00;97631.19;5036790;28;20037;-57
2022/09/19 00:03:39;;;;;;;24.05;3.28;;;;;;;10.16;100.00;97636.38;5040036;28;20043;-57
2022/09/19 00:06:06;;;;;;;25.40;3.58;;;;;;;10.41;100.00;97636.13;5053977;28;20057;-56
2022/09/19 00:08:31;;;;;;;24.85;3.25;;;;;;;9.84;100.00;97640.41;5039114;28;20025;-56
2022/09/19 00:11:00;;;;;;;22.42;3.45;;;;;;;10.43;100.00;97643.88;5030802;28;20040;-58
2022/09/19 00:13:25;;;;;;;22.90;3.47;;;;;;;10.12;100.00;97655.66;5036416;28;20144;-58
2022/09/19 00:15:51;;;;;;;26.38;3.55;;;;;;;10.14;100.00;97655.59;5039576;28;20033;-56
2022/09/19 00:18:16;;;;;;;33.03;4.10;;;;;;;10.31;100.00;97650.50;5037901;28;20048;-57
2022/09/19 00:20:49;;;;;;;38.20;4.53;;;;;;;10.16;100.00;97632.91;5037917;28;20052;-57
2022/09/19 00:26:08;;;;;;;24.77;3.40;;;;;;;10.24;100.00;97643.84;5038178;28;20044;-57
2022/09/19 00:28:34;;;;;;;25.42;3.90;;;;;;;10.09;100.00;97650.59;5038595;28;20020;-58
2022/09/19 00:31:01;;;;;;;28.30;3.53;;;;;;;10.39;100.00;97647.53;5038253;28;20047;-57
2022/09/19 00:33:30;;;;;;;21.50;3.00;;;;;;;10.87;100.00;97659.19;5038932;28;20082;-57
2022/09/19 00:35:59;;;;;;;25.30;3.50;;;;;;;10.90;100.00;97659.06;5038187;28;20049;-58
2022/09/19 00:38:26;;;;;;;26.88;3.60;;;;;;;11.49;100.00;97656.22;5037903;28;20028;-58
2022/09/19 00:40:52;;;;;;;24.33;3.45;;;;;;;10.96;100.00;97653.53;5037536;28;20041;-57
2022/09/19 00:43:19;;;;;;;21.02;3.08;;;;;;;10.18;100.00;97639.75;5038133;28;20102;-57
2022/09/19 00:45:45;;;;;;;19.70;2.90;;;;;;;11.09;100.00;97653.78;5038050;28;20037;-58
2022/09/19 00:48:14;;;;;;;25.30;3.47;;;;;;;10.57;100.00;97645.84;5039739;28;20087;-57
2022/09/19 00:50:41;;;;;;;40.50;4.75;;;;;;;10.55;100.00;97642.44;5036670;28;20045;-57
2022/09/19 00:53:12;;;;;;;23.55;3.22;;;;;;;10.78;100.00;97643.97;5038559;28;20039;-56
2022/09/19 00:55:39;;;;;;;24.25;3.40;;;;;;;11.13;100.00;97644.03;5037515;28;21042;-60
2022/09/19 00:58:10;;;;;;;25.52;3.40;;;;;;;10.75;100.00;97642.38;5036779;28;20029;-57
2022/09/19 01:00:35;;;;;;;33.90;4.35;;;;;;;11.03;100.00;97648.88;5037194;28;20037;-59
2022/09/19 01:03:06;;;;;;;24.35;3.17;;;;;;;10.87;100.00;97643.53;5037390;28;20092;-59
2022/09/19 01:05:56;;;;;;;21.90;3.20;;;;;;;10.58;100.00;97643.16;5037831;28;20206;-57
2022/09/19 01:08:43;;;;;;;19.80;2.75;;;;;;;11.14;100.00;97653.59;5054119;28;20078;-59
2022/09/19 01:11:28;;;;;;;19.75;2.70;;;;;;;10.41;100.00;97638.72;5036351;28;20123;-59
2022/09/19 01:14:39;;;;;;;25.42;3.42;;;;;;;10.92;100.00;97652.00;5037117;28;20090;-60
2022/09/19 01:17:16;;;;;;;24.25;3.25;;;;;;;10.65;100.00;97648.09;5034304;28;20877;-57
2022/09/19 01:19:59;;;;;;;16.55;2.80;;;;;;;11.84;100.00;97661.41;5038099;28;20033;-56
2022/09/19 01:22:56;;;;;;;23.63;3.22;;;;;;;10.85;100.00;97650.59;5036161;28;20115;-57
2022/09/19 01:25:46;;;;;;;22.02;3.05;;;;;;;10.74;100.00;97647.66;5037716;28;20104;-57
2022/09/19 01:28:34;;;;;;;26.35;3.40;;;;;;;11.38;100.00;97647.13;5037431;28;20577;-58
2022/09/19 01:31:22;;;;;;;24.58;3.30;;;;;;;10.91;100.00;97650.28;5035351;28;20106;-58
2022/09/19 01:34:02;;;;;;;18.55;2.72;;;;;;;11.41;100.00;97650.50;5038201;28;20037;-56
2022/09/19 01:36:34;;;;;;;21.80;3.03;;;;;;;11.34;100.00;97650.81;5036543;28;20047;-58
2022/09/19 01:39:03;;;;;;;22.00;2.95;;;;;;;10.99;100.00;97642.09;5038294;28;20060;-58
2022/09/19 01:41:30;;;;;;;23.65;3.33;;;;;;;10.75;100.00;97659.75;5036453;28;20064;-58
2022/09/19 01:43:59;;;;;;;22.98;3.15;;;;;;;10.40;100.00;97659.63;5036030;28;20025;-58
2022/09/19 01:46:30;;;;;;;28.42;3.65;;;;;;;10.73;100.00;97669.44;5036036;28;20068;-60
2022/09/19 01:49:24;;;;;;;22.00;3.10;;;;;;;10.98;100.00;97661.28;5037486;28;20032;-59
2022/09/19 01:52:02;;;;;;;22.67;3.00;;;;;;;10.99;100.00;97658.63;5035093;28;20039;-60
2022/09/19 01:54:45;;;;;;;26.20;3.45;;;;;;;11.02;100.00;97668.06;5036998;28;20025;-60
2022/09/19 01:57:41;;;;;;;18.27;2.67;;;;;;;11.27;100.00;97672.09;5037058;28;20908;-58
2022/09/19 02:00:21;;;;;;;28.05;3.50;;;;;;;10.94;100.00;97665.81;5035153;28;20452;-59
2022/09/19 02:03:03;;;;;;;29.08;3.85;;;;;;;10.88;100.00;97665.25;5033722;28;20045;-57
2022/09/19 02:05:41;;;;;;;26.00;3.50;;;;;;;11.29;100.00;97670.25;5034547;28;20052;-57
2022/09/19 02:08:19;;;;;;;24.30;3.13;;;;;;;10.98;100.00;97671.75;5036808;28;20029;-59
2022/09/19 02:10:54;;;;;;;31.35;4.05;;;;;;;11.74;100.00;97669.72;5033675;28;20060;-59
2022/09/19 02:13:24;;;;;;;22.45;3.20;;;;;;;11.31;100.00;97663.19;5035690;28;20049;-57
2022/09/19 02:15:54;;;;;;;17.38;2.63;;;;;;;10.85;100.00;97661.03;5037276;28;20466;-55
2022/09/19 02:18:30;;;;;;;25.13;3.40;;;;;;;11.66;100.00;97674.47;5038197;28;20033;-57
2022/09/19 02:21:03;;;;;;;25.80;3.47;;;;;;;11.36;100.00;97672.47;5036141;28;20041;-58
2022/09/19 02:23:33;;;;;;;20.73;2.95;;;;;;;11.76;100.00;97675.72;5037307;28;20793;-56
2022/09/19 02:26:02;;;;;;;23.90;3.28;;;;;;;11.35;100.00;97662.09;5036345;28;20041;-57
2022/09/19 02:28:32;;;;;;;22.50;3.25;;;;;;;12.08;100.00;97670.63;5034643;28;20036;-56
2022/09/19 02:30:59;;;;;;;30.13;4.28;;;;;;;10.94;100.00;97664.97;5035312;28;20045;-57
2022/09/19 02:33:25;;;;;;;23.55;3.63;;;;;;;10.69;100.00;97673.94;5036080;28;20863;-56
2022/09/19 02:36:05;;;;;;;20.67;3.20;;;;;;;11.21;100.00;97673.22;5037422;28;20043;-56
2022/09/19 02:38:43;;;;;;;21.48;3.33;;;;;;;11.41;100.00;97674.00;5036718;28;20470;-57
2022/09/19 02:41:36;;;;;;;23.27;3.40;;;;;;;11.24;100.00;97665.25;5034101;28;20041;-56
2022/09/19 02:44:19;;;;;;;26.42;3.88;;;;;;;10.81;100.00;97680.38;5031666;28;20508;-57
2022/09/19 02:46:47;;;;;;;20.70;3.30;;;;;;;12.10;100.00;97684.44;5037147;28;20503;-56
2022/09/19 02:49:38;;;;;;;28.15;4.03;;;;;;;11.31;100.00;97666.63;5037038;28;20029;-58
2022/09/19 02:52:11;;;;;;;24.05;3.83;;;;;;;11.89;100.00;97669.84;5050868;28;20524;-56
2022/09/19 02:54:42;;;;;;;30.13;4.45;;;;;;;11.55;100.00;97671.56;5034959;28;20102;-57
2022/09/19 02:57:13;;;;;;;26.42;4.03;;;;;;;11.14;100.00;97677.06;5036437;28;20377;-56
2022/09/19 02:59:42;;;;;;;24.03;3.53;;;;;;;10.96;100.00;97682.25;5036739;28;20035;-56
2022/09/19 03:02:26;;;;;;;27.98;4.18;;;;;;;11.07;100.00;97686.94;5035212;28;20274;-57
2022/09/19 03:04:59;;;;;;;25.70;3.67;;;;;;;11.11;100.00;97692.88;5036463;28;20047;-56
2022/09/19 03:07:36;;;;;;;23.77;3.42;;;;;;;12.11;100.00;97695.75;5035200;28;20049;-57
2022/09/19 03:10:12;;;;;;;21.05;3.13;;;;;;;11.33;100.00;97688.28;5035570;28;20036;-58
2022/09/19 03:12:50;;;;;;;25.08;3.88;;;;;;;11.27;100.00;97679.94;5036444;28;20041;-56
2022/09/19 03:15:20;;;;;;;23.75;3.95;;;;;;;11.18;100.00;97678.59;5036581;28;20036;-56
2022/09/19 03:17:49;;;;;;;20.38;3.38;;;;;;;11.26;100.00;97686.91;5037304;28;20021;-56
2022/09/19 03:20:16;;;;;;;24.35;3.75;;;;;;;12.27;100.00;97680.94;5037095;28;20024;-56
2022/09/19 03:22:41;;;;;;;27.20;3.95;;;;;;;10.99;100.00;97684.72;5039540;28;20032;-57
2022/09/19 03:25:09;;;;;;;20.42;3.60;;;;;;;11.28;100.00;97685.06;5040585;28;20110;-58
2022/09/19 03:27:37;;;;;;;27.52;4.03;;;;;;;11.23;100.00;97686.19;5039959;28;20028;-58
2022/09/19 03:30:08;;;;;;;23.02;3.70;;;;;;;11.30;100.00;97698.91;5037852;28;20043;-56
2022/09/19 03:32:35;;;;;;;26.60;4.13;;;;;;;10.52;100.00;97699.97;5038362;28;20041;-55
2022/09/19 03:35:04;;;;;;;24.05;4.13;;;;;;;11.04;100.00;97707.13;5039211;28;20029;-57
2022/09/19 03:37:32;;;;;;;26.20;3.80;;;;;;;11.11;100.00;97708.53;5040646;28;20095;-56
2022/09/19 03:39:57;;;;;;;21.52;3.38;;;;;;;11.47;100.00;97715.50;5040621;28;20029;-56
2022/09/19 03:42:22;;;;;;;23.52;3.60;;;;;;;11.73;100.00;97717.66;5039541;28;20067;-58
2022/09/19 03:44:48;;;;;;;27.45;4.18;;;;;;;11.03;100.00;97708.91;5040220;28;20053;-56
2022/09/19 03:47:13;;;;;;;25.55;3.88;;;;;;;11.33;100.00;97719.63;5038498;28;20040;-56
2022/09/19 03:49:39;;;;;;;28.90;4.40;;;;;;;10.93;100.00;97708.47;5039976;28;20032;-57
2022/09/19 03:52:04;;;;;;;27.10;4.00;;;;;;;11.31;100.00;97716.25;5038011;28;20472;-57
2022/09/19 03:54:29;;;;;;;22.38;3.88;;;;;;;11.55;100.00;97723.81;5038682;28;20028;-56
2022/09/19 03:56:55;;;;;;;27.65;4.18;;;;;;;11.43;100.00;97721.78;5038600;28;20623;-56
2022/09/19 03:59:20;;;;;;;25.38;4.18;;;;;;;11.90;100.00;97721.22;5040387;28;20095;-56
2022/09/19 04:01:46;;;;;;;25.48;3.67;;;;;;;12.57;100.00;97723.84;5038720;28;20045;-58
2022/09/19 04:04:12;;;;;;;21.23;3.72;;;;;;;11.83;100.00;97725.03;5039539;28;20136;-58
2022/09/19 04:06:37;;;;;;;27.63;3.92;;;;;;;12.40;100.00;97733.44;5037799;28;20146;-58
2022/09/19 04:09:03;;;;;;;30.25;4.20;;;;;;;12.58;100.00;97734.25;5038608;28;20032;-56
2022/09/19 04:11:29;;;;;;;23.98;3.85;;;;;;;11.87;100.00;97722.22;5037876;28;20029;-56
2022/09/19 04:13:55;;;;;;;23.25;3.72;;;;;;;11.94;100.00;97731.44;5039779;28;20025;-56
2022/09/19 04:16:22;;;;;;;22.85;3.70;;;;;;;11.90;100.00;97732.53;5039324;28;20032;-58
2022/09/19 04:18:50;;;;;;;21.83;3.75;;;;;;;12.59;100.00;97741.19;5038914;28;20502;-57
2022/09/19 04:21:19;;;;;;;25.17;4.10;;;;;;;11.71;100.00;97729.97;5037248;28;20523;-58
2022/09/19 04:23:45;;;;;;;25.38;4.10;;;;;;;10.90;100.00;97726.03;5039604;28;20107;-56
2022/09/19 04:26:12;;;;;;;28.42;4.28;;;;;;;11.20;100.00;97739.41;5037567;28;20041;-56
2022/09/19 04:28:39;;;;;;;25.92;3.70;;;;;;;12.45;100.00;97754.97;5039125;28;20086;-58
2022/09/19 04:31:07;;;;;;;30.98;4.35;;;;;;;11.80;100.00;97746.97;5037222;28;20041;-59
2022/09/19 04:33:32;;;;;;;21.42;3.30;;;;;;;12.42;100.00;97757.75;5039432;28;20083;-56
2022/09/19 04:36:00;;;;;;;32.17;5.07;;;;;;;12.15;100.00;97754.81;5038662;28;20037;-56
2022/09/19 04:38:28;;;;;;;24.95;3.78;;;;;;;11.87;100.00;97755.31;5039423;28;20057;-56
2022/09/19 04:40:57;;;;;;;29.25;4.22;;;;;;;12.59;100.00;97759.50;5038133;28;20562;-58
2022/09/19 04:43:24;;;;;;;23.85;4.07;;;;;;;11.80;100.00;97748.69;5039180;28;20021;-58
2022/09/19 04:45:50;;;;;;;22.92;3.70;;;;;;;11.89;100.00;97753.47;5039196;28;20048;-59
2022/09/19 04:48:19;;;;;;;29.77;4.25;;;;;;;12.05;100.00;97759.66;5038685;28;20024;-57
2022/09/19 04:50:50;;;;;;;39.67;5.03;;;;;;;12.63;100.00;97757.56;5038234;28;20037;-59
2022/09/19 04:53:19;;;;;;;27.27;4.05;;;;;;;11.89;100.00;97753.47;5038143;28;20498;-56
2022/09/19 04:55:50;;;;;;;23.83;3.85;;;;;;;13.49;100.00;97766.81;5036735;28;20037;-57
2022/09/19 04:58:15;;;;;;;22.80;3.65;;;;;;;12.82;100.00;97745.16;5038890;28;20029;-57
2022/09/19 05:00:45;;;;;;;31.15;4.78;;;;;;;12.17;100.00;97767.78;5037529;28;20626;-58
2022/09/19 05:03:15;;;;;;;25.70;4.20;;;;;;;11.90;100.00;97752.59;5039369;28;20032;-59
2022/09/19 05:05:44;;;;;;;28.15;4.47;;;;;;;12.42;100.00;97762.97;5037314;28;20727;-57
2022/09/19 05:08:12;;;;;;;25.58;4.40;;;;;;;11.30;100.00;97761.56;5038017;28;20775;-60
2022/09/19 05:10:38;;;;;;;39.25;5.47;;;;;;;12.03;100.00;97777.19;5034981;28;20120;-58
2022/09/19 05:13:03;;;;;;;25.45;4.05;;;;;;;11.79;100.00;97776.59;5036719;28;20035;-60
2022/09/19 05:15:29;;;;;;;20.73;3.33;;;;;;;13.60;100.00;97797.66;5038748;28;20112;-60
2022/09/19 05:17:55;;;;;;;21.05;3.60;;;;;;;12.57;100.00;97794.50;5038858;28;20029;-58
2022/09/19 05:20:21;;;;;;;24.40;3.85;;;;;;;12.86;100.00;97793.78;5037482;28;20056;-59
2022/09/19 05:22:47;;;;;;;27.83;4.22;;;;;;;13.44;100.00;97796.81;5037224;28;20028;-59
2022/09/19 05:25:15;;;;;;;28.70;4.22;;;;;;;12.17;100.00;97801.78;5036954;28;20029;-56
2022/09/19 05:27:41;;;;;;;25.75;4.32;;;;;;;12.56;100.00;97809.34;5038075;28;20281;-59
2022/09/19 05:30:07;;;;;;;24.70;4.00;;;;;;;13.23;100.00;97809.28;5038006;28;20700;-59
2022/09/19 05:32:34;;;;;;;21.75;3.58;;;;;;;12.15;100.00;97818.41;5037399;28;20052;-60
2022/09/19 05:35:00;;;;;;;28.50;4.78;;;;;;;11.80;100.00;97811.41;5037970;28;20571;-60
2022/09/19 05:37:26;;;;;;;24.23;3.90;;;;;;;12.50;100.00;97810.53;5039019;28;20596;-57
2022/09/19 05:39:52;;;;;;;22.10;3.95;;;;;;;12.16;100.00;97819.25;5035717;28;20410;-59
2022/09/19 05:42:17;;;;;;;28.90;4.35;;;;;;;11.81;100.00;97818.34;5036373;28;20043;-59
2022/09/19 05:44:43;;;;;;;21.48;3.83;;;;;;;12.28;100.00;97830.88;5037806;28;20162;-57
2022/09/19 05:47:08;;;;;;;22.02;3.47;;;;;;;13.18;100.00;97840.97;5037760;28;20064;-57
2022/09/19 05:49:36;;;;;;;25.15;4.07;;;;;;;12.64;100.00;97840.34;5037352;28;20033;-58
2022/09/19 05:53:51;;;;;;;27.65;4.53;;;;;;;12.02;100.00;97842.59;5036989;28;20068;-58
2022/09/19 05:54:46;;;;;;;26.02;4.18;;;;;;;12.12;100.00;97844.69;5037449;28;20321;-59
2022/09/19 05:57:12;;;;;;;29.63;4.60;;;;;;;11.93;100.00;97846.53;5036612;28;20678;-59
2022/09/19 05:59:38;;;;;;;24.58;4.53;;;;;;;12.18;100.00;97859.22;5037720;28;20021;-59
2022/09/19 06:02:05;;;;;;;31.25;5.00;;;;;;;12.09;100.00;97857.06;5032470;28;20099;-57
2022/09/19 06:04:30;;;;;;;29.05;5.03;;;;;;;11.80;100.00;97858.44;5035235;28;20021;-58
2022/09/19 06:06:56;;;;;;;22.70;4.28;;;;;;;12.67;100.00;97864.59;5037721;28;20044;-58
2022/09/19 06:09:21;;;;;;;26.15;4.32;;;;;;;12.82;100.00;97865.56;5036519;28;20021;-58
2022/09/19 06:11:46;;;;;;;20.80;3.67;;;;;;;13.08;100.00;97872.03;5035758;28;20047;-57
2022/09/19 06:14:15;;;;;;;26.48;4.40;;;;;;;12.70;100.00;97860.97;5035939;28;20755;-58
2022/09/19 06:16:41;;;;;;;26.58;4.38;;;;;;;12.38;100.00;97865.25;5036816;28;20157;-59
2022/09/19 06:19:08;;;;;;;30.85;4.50;;;;;;;12.57;100.00;97881.66;5036853;28;20485;-58
2022/09/19 06:21:33;;;;;;;23.95;4.60;;;;;;;12.40;100.00;97884.31;5033823;28;20033;-58
2022/09/19 06:24:01;;;;;;;19.55;3.95;;;;;;;12.62;100.00;97886.69;5035625;28;20372;-57
2022/09/19 06:26:27;;;;;;;27.58;4.68;;;;;;;12.58;100.00;97885.16;5036641;28;20044;-60
2022/09/19 06:28:53;;;;;;;25.75;4.07;;;;;;;12.33;100.00;97883.75;5037246;28;20047;-60
2022/09/19 06:31:18;;;;;;;23.77;4.55;;;;;;;11.56;100.00;97890.91;5035178;28;20059;-58
2022/09/19 06:33:44;;;;;;;27.08;4.70;;;;;;;11.83;100.00;97890.50;5037164;28;20107;-59
2022/09/19 06:36:10;;;;;;;27.67;4.82;;;;;;;11.61;100.00;97898.53;5036852;28;20081;-59
2022/09/19 06:38:40;;;;;;;24.23;4.60;;;;;;;11.72;100.00;97909.31;5037927;28;20306;-59
2022/09/19 06:41:08;;;;;;;21.70;3.88;;;;;;;12.86;100.00;97921.22;5036328;28;20049;-58
2022/09/19 06:43:33;;;;;;;26.52;4.32;;;;;;;11.95;100.00;97916.09;5037035;28;20016;-57
2022/09/19 06:45:58;;;;;;;20.60;3.75;;;;;;;12.64;100.00;97914.44;5035609;28;20041;-59
2022/09/19 06:48:24;;;;;;;24.98;4.35;;;;;;;13.10;100.00;97926.94;5036598;28;20033;-58
2022/09/19 06:50:49;;;;;;;24.35;4.25;;;;;;;12.99;100.00;97929.28;5034867;28;20048;-58
2022/09/19 06:53:16;;;;;;;18.92;3.50;;;;;;;13.01;100.00;97924.81;5037718;28;20052;-57
2022/09/19 06:55:42;;;;;;;24.52;4.35;;;;;;;12.51;100.00;97919.47;5036995;28;20112;-58
2022/09/19 06:58:10;;;;;;;23.83;3.83;;;;;;;12.46;100.00;97936.31;5042008;28;20040;-60
2022/09/19 07:00:36;;;;;;;34.75;5.47;;;;;;;12.67;100.00;97939.63;5038736;28;20591;-59
2022/09/19 07:03:09;;;;;;;18.52;3.20;;;;;;;13.21;100.00;97944.72;5030360;28;20059;-59
2022/09/19 07:05:38;;;;;;;17.20;3.08;;;;;;;13.42;100.00;97948.03;5042716;28;20040;-60
2022/09/19 07:08:04;;;;;;;17.23;3.20;;;;;;;13.81;100.00;97933.69;5041973;28;20025;-58
2022/09/19 07:10:30;;;;;;;20.25;3.70;;;;;;;13.08;100.00;97929.63;5042076;28;20032;-58
2022/09/19 07:13:01;;;;;;;21.83;3.83;;;;;;;12.60;100.00;97943.47;5042850;28;20037;-59
2022/09/19 07:15:36;;;;;;;18.52;3.72;;;;;;;13.94;100.00;97939.94;5043704;28;20037;-60
2022/09/19 07:18:08;;;;;;;22.90;3.80;;;;;;;12.84;100.00;97947.47;5039801;28;20062;-60
2022/09/19 07:20:34;;;;;;;34.30;4.93;;;;;;;13.07;100.00;97963.78;5041234;28;20039;-60
2022/09/19 07:23:02;;;;;;;27.02;4.63;;;;;;;13.75;100.00;97961.06;5040617;28;20090;-59
2022/09/19 07:25:28;;;;;;;25.63;4.75;;;;;;;12.95;100.00;97956.56;5039298;28;20132;-58
2022/09/19 07:28:02;;;;;;;20.52;3.72;;;;;;;13.39;100.00;97977.00;5039334;28;20448;-58
2022/09/19 07:30:29;;;;;;;19.52;3.80;;;;;;;12.45;100.00;97972.09;5040304;28;20087;-59
2022/09/19 07:32:58;;;;;;;20.00;3.53;;;;;;;13.44;100.00;97985.47;5042193;28;20041;-60
2022/09/19 07:35:28;;;;;;;17.80;3.17;;;;;;;13.74;100.00;97993.44;5041312;28;20627;-61
2022/09/19 07:37:55;;;;;;;17.60;3.70;;;;;;;13.46;100.00;97996.72;5040540;28;20026;-57
2022/09/19 07:40:22;;;;;;;21.02;3.58;;;;;;;14.35;100.00;97994.47;5041879;28;20036;-60
2022/09/19 07:42:47;;;;;;;16.65;3.40;;;;;;;14.05;100.00;97990.00;5041413;28;20028;-59
2022/09/19 07:45:13;;;;;;;23.00;4.55;;;;;;;14.19;100.00;97991.88;5042815;28;20418;-60
2022/09/19 07:47:46;;;;;;;18.55;3.65;;;;;;;13.88;100.00;97990.09;5042564;28;20028;-59
2022/09/19 07:50:17;;;;;;;18.42;3.72;;;;;;;13.80;100.00;98005.38;5041892;28;20021;-58
2022/09/19 07:52:46;;;;;;;18.73;4.00;;;;;;;13.65;100.00;98002.66;5040082;28;20079;-58
2022/09/19 07:55:13;;;;;;;13.05;2.90;;;;;;;14.39;100.00;98013.50;5041840;28;20029;-61
2022/09/19 07:57:48;;;;;;;14.57;3.30;;;;;;;13.73;100.00;98010.13;5041895;28;20032;-61
2022/09/19 08:00:14;;;;;;;21.52;4.40;;;;;;;13.63;100.00;98016.78;5035542;28;20028;-61
2022/09/19 08:02:39;;;;;;;23.27;4.25;;;;;;;13.74;100.00;98013.59;5036945;28;20033;-58
2022/09/19 08:05:05;;;;;;;18.35;3.25;;;;;;;14.03;100.00;98023.34;5039355;28;20025;-58
2022/09/19 08:07:30;;;;;;;22.80;4.43;;;;;;;13.60;100.00;98024.78;5041586;28;20024;-58
2022/09/19 08:09:56;;;;;;;21.50;4.28;;;;;;;12.51;100.00;98023.25;5041829;28;20732;-62
2022/09/19 08:12:22;;;;;;;17.38;3.30;;;;;;;13.67;100.00;98037.50;5040289;28;21031;-59
2022/09/19 08:14:47;;;;;;;24.00;4.13;;;;;;;13.36;100.00;98038.28;5040272;28;20688;-60
2022/09/19 08:17:12;;;;;;;19.98;4.35;;;;;;;13.35;100.00;98030.50;5036343;28;20041;-59
2022/09/19 08:19:38;;;;;;;21.40;4.50;;;;;;;13.95;100.00;98037.78;5035985;28;20127;-61
2022/09/19 08:22:03;;;;;;;20.02;3.88;;;;;;;13.78;100.00;98043.94;5039883;28;20069;-60
2022/09/19 08:24:29;;;;;;;21.90;3.80;;;;;;;13.64;100.00;98039.44;5039785;28;20704;-61
2022/09/19 08:26:56;;;;;;;18.20;3.33;;;;;;;14.51;100.00;98044.31;5039812;28;20670;-59
2022/09/19 08:29:21;;;;;;;20.75;4.22;;;;;;;14.35;100.00;98044.31;5039966;28;20512;-60
2022/09/19 08:31:46;;;;;;;21.00;4.03;;;;;;;14.42;100.00;98035.16;5040057;28;20037;-58
2022/09/19 08:34:12;;;;;;;21.67;4.05;;;;;;;14.44;100.00;98042.97;5040070;28;20036;-59
2022/09/19 08:36:40;;;;;;;22.58;4.50;;;;;;;13.93;100.00;98039.66;5039955;28;20786;-59
2022/09/19 08:39:05;;;;;;;24.42;4.68;;;;;;;13.62;100.00;98047.38;5038538;28;20023;-59
2022/09/19 08:41:56;;;;;;;20.10;3.95;;;;;;;14.44;100.00;98054.28;5036129;28;20044;-58
2022/09/19 08:44:30;;;;;;;21.02;4.60;;;;;;;14.08;100.00;98055.41;5029795;28;20450;-57
2022/09/19 08:47:06;;;;;;;27.77;4.95;;;;;;;13.86;100.00;98052.25;5028706;28;20701;-59
2022/09/19 08:49:38;;;;;;;25.33;4.75;;;;;;;14.82;100.00;98042.59;5035943;28;20563;-58
2022/09/19 08:52:25;;;;;;;24.88;4.68;;;;;;;15.57;100.00;98042.59;5034266;28;20037;-61
2022/09/19 08:54:52;;;;;;;24.85;4.30;;;;;;;15.48;100.00;98040.50;5037648;28;20117;-59
2022/09/19 08:57:27;;;;;;;29.08;4.57;;;;;;;15.40;100.00;98038.31;5036932;28;20704;-61
2022/09/19 08:59:58;;;;;;;23.30;4.13;;;;;;;15.12;100.00;98049.63;5037693;28;20032;-59
2022/09/19 09:02:37;;;;;;;18.02;3.65;;;;;;;16.12;100.00;98041.81;5034333;28;20048;-57
2022/09/19 09:05:03;;;;;;;23.63;4.50;;;;;;;16.07;100.00;98049.16;5035146;28;20104;-61
2022/09/19 09:07:41;;;;;;;24.00;4.18;;;;;;;15.58;100.00;98057.41;5037264;28;20800;-60
2022/09/19 09:10:32;;;;;;;16.70;3.38;;;;;;;16.47;100.00;98061.56;5037620;28;20032;-59
2022/09/19 09:13:23;;;;;;;24.15;4.30;;;;;;;16.59;100.00;98044.97;5037486;28;20059;-59
2022/09/19 09:16:00;;;;;;;23.92;4.18;;;;;;;16.73;100.00;98052.84;5035277;28;20083;-57
2022/09/19 09:18:44;;;;;;;18.63;3.25;;;;;;;16.67;100.00;98047.13;5033305;28;20028;-61
2022/09/19 09:21:18;;;;;;;21.08;4.10;;;;;;;17.56;100.00;98050.91;5033051;28;20072;-62
2022/09/19 09:23:49;;;;;;;20.00;3.50;;;;;;;17.00;100.00;98044.09;5033800;28;20650;-62
2022/09/19 09:26:20;;;;;;;16.45;3.30;;;;;;;16.13;100.00;98058.44;5034571;28;20131;-61
2022/09/19 09:28:57;;;;;;;25.42;4.68;;;;;;;15.54;100.00;98067.25;5036774;28;20560;-59
2022/09/19 09:31:27;;;;;;;22.48;3.60;;;;;;;16.79;100.00;98071.81;5034796;28;20044;-58
2022/09/19 09:34:07;;;;;;;15.75;3.05;;;;;;;16.82;100.00;98069.84;5034246;28;20061;-60
2022/09/19 09:36:49;;;;;;;25.42;4.47;;;;;;;16.05;100.00;98066.00;5037158;28;20029;-58
2022/09/19 09:39:19;;;;;;;;;;;;;;;16.05;100.00;98069.47;5036539;28;20021;-58
2022/09/19 09:41:53;;;;;;;17.90;3.35;;;;;;;16.52;100.00;98059.47;5034796;28;19952;-59
2022/09/19 09:44:44;;;;;;;24.73;4.35;;;;;;;16.35;100.00;98063.19;5037046;28;20032;-57
2022/09/19 09:47:19;;;;;;;18.85;3.38;;;;;;;16.54;100.00;98074.25;5034474;28;20037;-57
2022/09/19 09:49:46;;;;;;;28.40;4.60;;;;;;;16.08;100.00;98076.31;5033965;28;20098;-58
2022/09/19 09:52:15;;;;;;;22.95;4.22;;;;;;;16.32;100.00;98074.78;5033565;28;20033;-58
2022/09/19 09:58:02;;;;;;;22.70;3.67;;;;;;;17.90;100.00;98087.22;5030832;28;20347;-62
2022/09/19 10:03:35;;;;;;;22.40;4.10;;;;;;;17.82;100.00;98078.97;5033719;28;20167;-56
2022/09/19 10:06:15;;;;;;;17.90;3.53;;;;;;;18.45;100.00;98085.13;5034868;28;20041;-58
2022/09/19 10:08:43;;;;;;;26.45;4.32;;;;;;;18.53;100.00;98084.56;5035797;28;20025;-58
2022/09/19 10:11:18;;;;;;;23.13;3.95;;;;;;;18.32;100.00;98086.09;5033918;28;20550;-58
2022/09/19 10:14:14;;;;;;;19.38;3.53;;;;;;;18.79;100.00;98090.59;5035745;28;20347;-61
2022/09/19 10:16:42;;;;;;;18.83;3.40;;;;;;;17.91;100.00;98094.19;5032559;28;20033;-58
2022/09/19 10:19:35;;;;;;;20.27;4.00;;;;;;;16.14;100.00;98086.47;5033941;28;20021;-60
2022/09/19 10:22:00;;;;;;;17.15;3.63;;;;;;;18.61;100.00;98095.41;5035529;28;20049;-60
2022/09/19 10:24:55;;;;;;;16.38;3.03;;;;;;;16.55;100.00;98101.44;5035345;28;20052;-57
2022/09/19 10:27:26;;;;;;;19.30;3.92;;;;;;;16.46;100.00;98096.75;5035832;28;20392;-59
2022/09/19 10:29:59;;;;;;;16.17;3.47;;;;;;;16.92;100.00;98104.34;5035823;28;20036;-57
2022/09/19 10:32:34;;;;;;;20.75;3.92;;;;;;;17.84;100.00;98092.88;5032579;28;20032;-57
2022/09/19 10:35:01;;;;;;;18.35;3.60;;;;;;;17.22;100.00;98087.47;5033325;28;20063;-58
2022/09/19 10:37:27;;;;;;;20.20;3.65;;;;;;;17.64;100.00;98090.78;5035408;28;20044;-59
2022/09/19 10:40:00;;;;;;;18.70;3.83;;;;;;;17.37;100.00;98089.09;5036085;28;20482;-58
2022/09/19 10:42:31;;;;;;;16.42;3.20;;;;;;;18.54;100.00;98096.81;5035156;28;20049;-58
2022/09/19 10:44:59;;;;;;;17.63;3.47;;;;;;;18.06;100.00;98080.88;5035648;28;20032;-59
2022/09/19 10:47:28;;;;;;;27.15;4.45;;;;;;;17.20;100.00;98076.16;5032995;28;20569;-59
2022/09/19 10:50:00;;;;;;;21.50;3.92;;;;;;;17.47;100.00;98079.59;5032183;28;21064;-58
2022/09/19 10:52:30;;;;;;;21.90;4.13;;;;;;;16.95;100.00;98072.53;5035029;28;20774;-55
2022/09/19 10:54:58;;;;;;;18.38;3.47;;;;;;;19.36;100.00;98083.75;5035891;28;20017;-59
2022/09/19 10:57:36;;;;;;;19.75;3.72;;;;;;;18.21;100.00;98081.59;5033967;28;20125;-58
2022/09/19 11:00:03;;;;;;;21.73;4.18;;;;;;;16.92;100.00;98084.09;5035569;28;20522;-60
2022/09/19 11:02:29;;;;;;;26.55;4.45;;;;;;;17.11;100.00;98082.88;5031262;28;20095;-59
2022/09/19 11:05:00;;;;;;;19.25;3.75;;;;;;;17.01;100.00;98102.91;5034396;28;20417;-59
2022/09/19 11:07:30;;;;;;;25.05;4.07;;;;;;;16.63;100.00;98093.88;5034579;28;20118;-56
2022/09/19 11:10:01;;;;;;;18.63;3.47;;;;;;;17.21;100.00;98088.41;5035147;28;20021;-56
2022/09/19 11:12:30;;;;;;;17.40;3.17;;;;;;;18.18;100.00;98101.13;5032995;28;20037;-58
2022/09/19 11:14:55;;;;;;;14.80;2.90;;;;;;;17.96;100.00;98090.38;5033763;28;20030;-59
2022/09/19 11:18:01;;;;;;;18.17;3.30;;;;;;;17.67;100.00;98091.41;5031286;28;20033;-59
2022/09/19 11:20:39;;;;;;;21.30;3.75;;;;;;;19.34;100.00;98096.25;5034713;28;20028;-58
2022/09/19 11:23:10;;;;;;;18.08;3.28;;;;;;;19.50;100.00;98095.09;5036341;28;20863;-59
2022/09/19 11:26:03;;;;;;;13.93;2.88;;;;;;;17.25;100.00;98098.63;5031168;28;20079;-59
2022/09/19 11:28:43;;;;;;;18.73;3.53;;;;;;;16.67;100.00;98121.72;5034855;28;20036;-59
2022/09/19 11:31:17;;;;;;;21.77;4.03;;;;;;;16.65;100.00;98120.97;5032465;28;20072;-58
2022/09/19 11:33:58;;;;;;;22.55;3.75;;;;;;;18.47;100.00;98108.75;5032424;28;20033;-59
2022/09/19 11:36:44;;;;;;;20.25;3.80;;;;;;;17.60;100.00;98105.13;5033728;28;20037;-61
2022/09/19 11:39:30;;;;;;;21.42;4.22;;;;;;;17.42;100.00;98097.50;5031922;28;20044;-58
2022/09/19 11:42:23;;;;;;;19.92;3.50;;;;;;;16.98;100.00;98097.84;5033731;28;20037;-58
2022/09/19 11:45:04;;;;;;;22.27;3.95;;;;;;;16.80;100.00;98103.34;5036269;28;20028;-59